createdAt,value
2023-05-10T00:01:15.457Z,13.90
2023-05-10T00:03:43.452Z,14.00
2023-05-10T00:06:11.364Z,14.00
2023-05-10T00:08:39.211Z,14.00
2023-05-10T00:11:07.073Z,13.90
2023-05-10T00:13:35.083Z,13.90
2023-05-10T00:16:03.003Z,13.90
2023-05-10T00:18:32.183Z,13.80
2023-05-10T00:20:59.976Z,13.90
2023-05-10T00:23:27.795Z,13.80
2023-05-10T00:25:55.611Z,13.80
2023-05-10T00:28:23.477Z,13.80
2023-05-10T00:30:51.331Z,13.90
2023-05-10T00:33:19.272Z,13.80
2023-05-10T00:35:48.587Z,13.80
2023-05-10T00:38:16.416Z,13.80
2023-05-10T00:40:44.987Z,13.80
2023-05-10T00:43:12.810Z,13.80
2023-05-10T00:45:42.300Z,13.80
2023-05-10T00:48:10.534Z,13.70
2023-05-10T00:50:38.602Z,13.70
2023-05-10T00:53:08.025Z,13.70
2023-05-10T00:55:35.870Z,13.70
2023-05-10T00:58:04.223Z,13.70
2023-05-10T01:00:32.319Z,13.60
2023-05-10T01:03:00.859Z,13.60
2023-05-10T01:05:28.986Z,13.50
2023-05-10T01:07:57.958Z,13.60
2023-05-10T01:10:27.292Z,13.60
2023-05-10T01:12:55.161Z,13.60
2023-05-10T01:15:23.305Z,13.60
2023-05-10T01:17:51.354Z,13.70
2023-05-10T01:20:19.468Z,13.60
2023-05-10T01:23:14.547Z,13.60
2023-05-10T01:26:21.682Z,13.60
2023-05-10T01:29:42.310Z,13.70
2023-05-10T01:32:31.052Z,13.60
2023-05-10T01:35:04.540Z,13.60
2023-05-10T01:37:42.697Z,13.60
2023-05-10T01:40:19.645Z,13.60
2023-05-10T01:42:51.943Z,13.60
2023-05-10T01:45:27.197Z,13.60
2023-05-10T01:48:10.455Z,13.60
2023-05-10T01:50:40.417Z,13.50
2023-05-10T01:53:10.256Z,13.50
2023-05-10T01:55:44.981Z,13.50
2023-05-10T01:58:16.140Z,13.60
2023-05-10T02:00:46.575Z,13.60
2023-05-10T02:03:17.882Z,13.60
2023-05-10T02:05:47.842Z,13.50
2023-05-10T02:08:16.689Z,13.50
2023-05-10T02:10:46.832Z,13.50
2023-05-10T02:13:16.293Z,13.60
2023-05-10T02:15:45.304Z,13.60
2023-05-10T02:18:16.342Z,13.50
2023-05-10T02:20:45.425Z,13.50
2023-05-10T02:23:13.578Z,13.60
2023-05-10T02:25:43.331Z,13.60
2023-05-10T02:28:13.720Z,13.60
2023-05-10T02:30:41.901Z,13.50
2023-05-10T02:33:10.337Z,13.50
2023-05-10T02:35:40.379Z,13.50
2023-05-10T02:38:09.389Z,13.50
2023-05-10T02:40:39.335Z,13.50
2023-05-10T02:43:08.221Z,13.50
2023-05-10T02:45:39.877Z,13.50
2023-05-10T02:48:08.283Z,13.50
2023-05-10T02:50:37.728Z,13.50
2023-05-10T02:53:13.588Z,13.50
2023-05-10T02:55:43.882Z,13.50
2023-05-10T02:58:11.736Z,13.40
2023-05-10T03:00:39.575Z,13.40
2023-05-10T03:03:07.820Z,13.40
2023-05-10T03:05:35.682Z,13.40
2023-05-10T03:08:05.191Z,13.50
2023-05-10T03:10:35.982Z,13.50
2023-05-10T03:13:28.164Z,13.40
2023-05-10T03:16:08.821Z,13.40
2023-05-10T03:18:43.247Z,13.40
2023-05-10T03:21:13.959Z,13.40
2023-05-10T03:23:45.524Z,13.30
2023-05-10T03:26:19.206Z,13.30
2023-05-10T03:28:49.556Z,13.30
2023-05-10T03:31:17.468Z,13.30
2023-05-10T03:33:49.269Z,13.20
2023-05-10T03:36:17.179Z,13.30
2023-05-10T03:38:45.056Z,13.30
2023-05-10T03:41:13.175Z,13.30
2023-05-10T03:43:42.493Z,13.30
2023-05-10T03:46:10.541Z,13.30
2023-05-10T03:48:38.347Z,13.30
2023-05-10T03:51:06.329Z,13.20
2023-05-10T03:53:34.134Z,13.30
2023-05-10T03:56:01.981Z,13.20
2023-05-10T03:58:29.779Z,13.20
2023-05-10T04:00:58.958Z,13.20
2023-05-10T04:03:27.448Z,13.20
2023-05-10T04:06:01.623Z,13.20
2023-05-10T04:08:29.836Z,13.20
2023-05-10T04:11:07.042Z,13.20
2023-05-10T04:13:34.831Z,13.20
2023-05-10T04:16:04.267Z,13.10
2023-05-10T04:18:32.214Z,13.10
2023-05-10T04:21:00.106Z,13.00
2023-05-10T04:23:28.509Z,13.10
2023-05-10T04:26:01.807Z,13.00
2023-05-10T04:28:29.704Z,13.10
2023-05-10T04:31:04.889Z,13.10
2023-05-10T04:33:33.430Z,13.00
2023-05-10T04:36:01.698Z,13.00
2023-05-10T04:38:29.659Z,13.10
2023-05-10T04:41:06.068Z,13.10
2023-05-10T04:43:34.013Z,13.10
2023-05-10T04:46:01.945Z,13.20
2023-05-10T04:48:31.122Z,13.20
2023-05-10T04:50:58.945Z,13.20
2023-05-10T04:53:26.776Z,13.20
2023-05-10T04:55:54.644Z,13.20
2023-05-10T04:58:22.517Z,13.30
2023-05-10T05:00:50.332Z,13.30
2023-05-10T05:03:18.273Z,13.30
2023-05-10T05:08:15.937Z,13.20
2023-05-10T05:10:43.708Z,13.20
2023-05-10T05:13:11.582Z,13.30
2023-05-10T05:15:39.389Z,13.30
2023-05-10T05:18:07.223Z,13.30
2023-05-10T05:20:35.361Z,13.30
2023-05-10T05:23:04.539Z,13.30
2023-05-10T05:25:32.517Z,13.30
2023-05-10T05:28:00.424Z,13.20
2023-05-10T05:30:28.448Z,13.20
2023-05-10T05:32:56.321Z,13.30
2023-05-10T05:35:24.156Z,13.30
2023-05-10T05:37:51.978Z,13.30
2023-05-10T05:40:21.814Z,13.30
2023-05-10T05:42:50.135Z,13.30
2023-05-10T05:45:18.482Z,13.30
2023-05-10T05:47:46.550Z,13.30
2023-05-10T05:50:14.557Z,13.30
2023-05-10T05:52:42.380Z,13.20
2023-05-10T05:55:10.505Z,13.20
2023-05-10T05:57:39.644Z,13.10
2023-05-10T06:00:08.903Z,13.10
2023-05-10T06:02:36.950Z,13.00
2023-05-10T06:05:05.286Z,13.00
2023-05-10T06:07:33.123Z,13.00
2023-05-10T06:10:01.176Z,13.00
2023-05-10T06:12:28.943Z,13.00
2023-05-10T06:14:58.091Z,13.00
2023-05-10T06:17:26.086Z,13.00
2023-05-10T06:19:53.925Z,13.00
2023-05-10T06:22:23.595Z,13.00
2023-05-10T06:24:51.562Z,13.00
2023-05-10T06:27:19.399Z,13.00
2023-05-10T06:29:47.206Z,13.00
2023-05-10T06:32:16.387Z,13.00
2023-05-10T06:34:44.702Z,13.00
2023-05-10T06:37:12.596Z,13.00
2023-05-10T06:39:40.496Z,13.00
2023-05-10T06:42:08.570Z,13.10
2023-05-10T06:44:36.457Z,13.00
2023-05-10T06:47:04.303Z,13.10
2023-05-10T06:49:33.493Z,13.20
2023-05-10T06:52:01.295Z,13.20
2023-05-10T06:54:29.094Z,13.20
2023-05-10T06:56:57.006Z,13.30
2023-05-10T06:59:25.103Z,13.30
2023-05-10T07:01:53.070Z,13.30
2023-05-10T07:04:20.887Z,13.30
2023-05-10T07:06:50.580Z,13.40
2023-05-10T07:09:18.761Z,13.40
2023-05-10T07:11:46.576Z,13.50
2023-05-10T07:14:14.368Z,13.50
2023-05-10T07:16:42.345Z,13.60
2023-05-10T07:19:10.389Z,13.60
2023-05-10T07:21:38.662Z,13.70
2023-05-10T07:24:08.158Z,13.70
2023-05-10T07:26:36.135Z,13.70
2023-05-10T07:29:04.011Z,13.70
2023-05-10T07:31:31.863Z,13.70
2023-05-10T07:33:59.755Z,13.60
2023-05-10T07:36:27.616Z,13.60
2023-05-10T07:38:55.609Z,13.60
2023-05-10T07:41:24.898Z,13.70
2023-05-10T07:43:53.020Z,13.70
2023-05-10T07:46:21.313Z,13.70
2023-05-10T07:48:49.165Z,13.80
2023-05-10T07:51:17.470Z,13.90
2023-05-10T07:53:45.292Z,14.00
2023-05-10T07:56:26.078Z,14.20
2023-05-10T07:58:54.022Z,14.30
2023-05-10T08:01:22.120Z,14.40
2023-05-10T08:03:50.414Z,14.40
2023-05-10T08:06:19.493Z,14.50
2023-05-10T08:08:50.250Z,14.60
2023-05-10T08:11:18.646Z,14.60
2023-05-10T08:13:48.041Z,14.90
2023-05-10T08:16:16.490Z,15.10
2023-05-10T08:18:45.871Z,15.40
2023-05-10T08:21:13.740Z,15.50
2023-05-10T08:23:41.604Z,15.90
2023-05-10T08:26:09.438Z,16.00
2023-05-10T08:28:37.203Z,16.30
2023-05-10T08:31:06.609Z,16.60
2023-05-10T08:33:34.695Z,17.00
2023-05-10T08:36:02.478Z,17.10
2023-05-10T08:38:30.274Z,17.20
2023-05-10T08:40:59.347Z,17.50
2023-05-10T08:43:29.727Z,17.60
2023-05-10T08:45:58.363Z,17.70
2023-05-10T08:48:30.854Z,17.60
2023-05-10T08:51:00.967Z,17.60
2023-05-10T08:53:30.665Z,17.50
2023-05-10T08:55:59.684Z,17.80
2023-05-10T08:58:27.725Z,18.10
2023-05-10T09:00:56.054Z,18.40
2023-05-10T09:03:23.957Z,18.50
2023-05-10T09:05:53.214Z,18.50
2023-05-10T09:08:22.051Z,18.40
2023-05-10T09:10:50.771Z,18.40
2023-05-10T09:13:20.502Z,18.70
2023-05-10T09:15:49.015Z,18.80
2023-05-10T09:18:16.885Z,18.80
2023-05-10T09:20:44.873Z,18.70
2023-05-10T09:23:14.049Z,18.20
2023-05-10T09:25:43.698Z,17.90
2023-05-10T09:28:11.860Z,17.80
2023-05-10T09:30:40.199Z,18.00
2023-05-10T09:33:08.797Z,18.30
2023-05-10T09:35:37.069Z,18.40
2023-05-10T09:38:06.403Z,18.10
2023-05-10T09:40:35.820Z,17.70
2023-05-10T09:43:06.832Z,17.60
2023-05-10T09:45:38.557Z,17.60
2023-05-10T09:48:07.902Z,18.00
2023-05-10T09:50:35.992Z,18.40
2023-05-10T09:53:05.286Z,18.90
2023-05-10T09:55:45.045Z,19.30
2023-05-10T09:58:13.418Z,19.40
2023-05-10T10:00:42.389Z,19.40
2023-05-10T10:03:16.233Z,19.30
2023-05-10T10:05:45.886Z,19.30
2023-05-10T10:08:14.377Z,19.30
2023-05-10T10:10:46.343Z,19.10
2023-05-10T10:13:14.941Z,19.10
2023-05-10T10:15:44.902Z,19.30
2023-05-10T10:18:16.214Z,19.50
2023-05-10T10:20:44.469Z,19.60
2023-05-10T10:23:12.336Z,19.30
2023-05-10T10:25:40.765Z,18.60
2023-05-10T10:28:23.818Z,18.20
2023-05-10T10:30:56.264Z,18.00
2023-05-10T10:33:42.064Z,17.80
2023-05-10T10:36:10.423Z,18.20
2023-05-10T10:38:40.434Z,18.30
2023-05-10T10:41:12.907Z,18.20
2023-05-10T10:43:42.124Z,18.30
2023-05-10T10:46:15.426Z,18.40
2023-05-10T10:48:48.903Z,18.60
2023-05-10T10:51:16.826Z,19.00
2023-05-10T10:53:45.491Z,19.20
2023-05-10T10:56:16.219Z,19.30
2023-05-10T10:58:53.418Z,19.80
2023-05-10T11:01:21.727Z,20.30
2023-05-10T11:04:21.038Z,20.90
2023-05-10T11:06:49.063Z,21.20
2023-05-10T11:09:16.871Z,20.70
2023-05-10T11:11:52.918Z,20.00
2023-05-10T11:14:24.315Z,19.40
2023-05-10T11:16:52.483Z,19.10
2023-05-10T11:19:21.181Z,19.10
2023-05-10T11:21:51.595Z,19.10
2023-05-10T11:24:20.982Z,19.00
2023-05-10T11:26:52.361Z,18.80
2023-05-10T11:29:20.880Z,18.70
2023-05-10T11:31:50.965Z,18.60
2023-05-10T11:34:25.944Z,18.50
2023-05-10T11:36:55.069Z,18.30
2023-05-10T11:39:23.008Z,18.20
2023-05-10T11:41:51.476Z,18.40
2023-05-10T11:44:19.390Z,18.40
2023-05-10T11:46:47.259Z,18.30
2023-05-10T11:49:16.429Z,18.20
2023-05-10T11:51:44.558Z,18.30
2023-05-10T11:54:13.459Z,18.20
2023-05-10T11:56:42.867Z,18.00
2023-05-10T11:59:10.697Z,17.90
2023-05-10T12:01:38.670Z,17.80
2023-05-10T12:04:06.797Z,17.80
2023-05-10T12:06:42.949Z,17.80
2023-05-10T12:09:11.154Z,17.80
2023-05-10T12:11:44.009Z,17.90
2023-05-10T12:14:12.554Z,17.90
2023-05-10T12:16:40.845Z,17.90
2023-05-10T12:19:08.898Z,17.80
2023-05-10T12:21:39.692Z,17.70
2023-05-10T12:24:07.729Z,17.70
2023-05-10T12:26:37.462Z,17.60
2023-05-10T12:29:16.509Z,17.50
2023-05-10T12:31:54.827Z,17.40
2023-05-10T12:34:27.710Z,17.40
2023-05-10T12:36:57.686Z,17.30
2023-05-10T12:39:25.774Z,17.20
2023-05-10T12:41:53.925Z,17.00
2023-05-10T12:44:21.794Z,17.00
2023-05-10T12:46:49.673Z,16.80
2023-05-10T12:49:17.788Z,16.70
2023-05-10T12:51:45.561Z,16.60
2023-05-10T12:54:14.736Z,16.60
2023-05-10T12:56:43.656Z,16.90
2023-05-10T12:59:11.455Z,16.90
2023-05-10T13:01:39.484Z,17.00
2023-05-10T13:04:07.474Z,17.10
2023-05-10T13:06:36.058Z,17.20
2023-05-10T13:09:04.528Z,17.20
2023-05-10T13:11:33.787Z,17.30
2023-05-10T13:14:01.675Z,17.10
2023-05-10T13:16:29.615Z,17.10
2023-05-10T13:18:57.490Z,17.10
2023-05-10T13:21:26.233Z,17.00
2023-05-10T13:23:54.884Z,16.90
2023-05-10T13:26:22.736Z,16.80
2023-05-10T13:28:52.800Z,16.60
2023-05-10T13:31:21.533Z,16.50
2023-05-10T13:33:49.567Z,16.70
2023-05-10T13:36:17.384Z,16.70
2023-05-10T13:38:45.234Z,16.70
2023-05-10T13:41:13.028Z,16.60
2023-05-10T13:43:40.793Z,16.70
2023-05-10T13:46:09.979Z,16.70
2023-05-10T13:48:39.163Z,16.70
2023-05-10T13:51:07.135Z,16.80
2023-05-10T13:53:35.485Z,16.80
2023-05-10T13:56:03.855Z,16.90
2023-05-10T13:58:31.811Z,16.90
2023-05-10T14:00:59.681Z,16.90
2023-05-10T14:03:29.057Z,17.00
2023-05-10T14:05:56.967Z,17.00
2023-05-10T14:08:24.763Z,17.10
2023-05-10T14:10:53.249Z,17.10
2023-05-10T14:13:21.128Z,17.20
2023-05-10T14:15:48.986Z,17.30
2023-05-10T14:18:16.890Z,17.40
2023-05-10T14:20:46.107Z,17.30
2023-05-10T14:23:14.650Z,17.40
2023-05-10T14:25:42.953Z,17.20
2023-05-10T14:28:11.659Z,17.20
2023-05-10T14:30:39.635Z,17.10
2023-05-10T14:33:08.861Z,17.00
2023-05-10T14:35:36.820Z,16.80
2023-05-10T14:38:06.333Z,16.70
2023-05-10T14:40:34.494Z,16.70
2023-05-10T14:43:02.412Z,16.60
2023-05-10T14:45:30.399Z,16.60
2023-05-10T14:47:58.692Z,16.60
2023-05-10T14:50:36.692Z,16.50
2023-05-10T14:53:06.784Z,16.50
2023-05-10T14:55:35.693Z,16.40
2023-05-10T14:58:04.369Z,16.40
2023-05-10T15:00:33.340Z,16.40
2023-05-10T15:03:01.706Z,16.50
2023-05-10T15:05:30.230Z,16.50
2023-05-10T15:07:58.403Z,16.60
2023-05-10T15:10:27.559Z,16.60
2023-05-10T15:12:55.376Z,16.70
2023-05-10T15:15:23.323Z,16.70
2023-05-10T15:17:51.431Z,16.70
2023-05-10T15:20:19.428Z,16.70
2023-05-10T15:22:47.210Z,16.80
2023-05-10T15:25:16.392Z,16.80
2023-05-10T15:27:45.797Z,16.80
2023-05-10T15:30:14.290Z,16.90
2023-05-10T15:32:42.185Z,16.90
2023-05-10T15:35:11.113Z,17.00
2023-05-10T15:37:38.994Z,17.10
2023-05-10T15:40:08.206Z,17.20
2023-05-10T15:42:36.280Z,17.20
2023-05-10T15:45:07.011Z,17.20
2023-05-10T15:47:34.949Z,17.20
2023-05-10T15:50:02.865Z,17.10
2023-05-10T15:52:30.726Z,17.00
2023-05-10T15:54:58.548Z,17.00
2023-05-10T15:57:26.436Z,16.90
2023-05-10T15:59:54.230Z,16.90
2023-05-10T16:02:23.567Z,16.90
2023-05-10T16:04:51.609Z,16.90
2023-05-10T16:07:19.403Z,17.00
2023-05-10T16:09:49.313Z,17.00
2023-05-10T16:12:17.199Z,17.00
2023-05-10T16:14:45.006Z,16.80
2023-05-10T16:17:13.112Z,16.70
2023-05-10T16:19:42.419Z,16.60
2023-05-10T16:22:10.363Z,16.40
2023-05-10T16:24:38.167Z,16.40
2023-05-10T16:27:05.993Z,16.40
2023-05-10T16:29:33.832Z,16.40
2023-05-10T16:32:01.833Z,16.40
2023-05-10T16:34:29.660Z,16.40
2023-05-10T16:36:58.837Z,16.40
2023-05-10T16:39:26.666Z,16.40
2023-05-10T16:41:54.474Z,16.30
2023-05-10T16:44:23.926Z,16.30
2023-05-10T16:46:54.930Z,16.30
2023-05-10T16:49:24.487Z,16.30
2023-05-10T16:51:53.862Z,16.20
2023-05-10T16:54:23.302Z,16.30
2023-05-10T16:56:51.149Z,16.30
2023-05-10T16:59:18.935Z,16.30
2023-05-10T17:01:47.106Z,16.20
2023-05-10T17:04:15.041Z,16.10
2023-05-10T17:06:43.026Z,16.10
2023-05-10T17:09:11.992Z,16.00
2023-05-10T17:11:42.057Z,15.90
2023-05-10T17:14:10.097Z,15.90
2023-05-10T17:16:37.954Z,15.90
2023-05-10T17:19:06.019Z,15.80
2023-05-10T17:21:33.883Z,15.80
2023-05-10T17:24:01.714Z,15.70
2023-05-10T17:26:29.993Z,15.70
2023-05-10T17:28:59.443Z,15.80
2023-05-10T17:31:27.588Z,15.70
2023-05-10T17:33:55.567Z,15.70
2023-05-10T17:36:23.447Z,15.80
2023-05-10T17:38:51.420Z,15.70
2023-05-10T17:41:19.567Z,15.80
2023-05-10T17:43:47.424Z,15.80
2023-05-10T17:46:17.115Z,15.80
2023-05-10T17:48:45.077Z,15.90
2023-05-10T17:51:13.017Z,15.80
2023-05-10T17:53:41.032Z,15.80
2023-05-10T17:56:09.558Z,15.70
2023-05-10T17:58:38.212Z,15.70
2023-05-10T18:01:06.613Z,15.70
2023-05-10T18:03:35.975Z,15.70
2023-05-10T18:06:04.693Z,15.60
2023-05-10T18:08:33.095Z,15.60
2023-05-10T18:11:00.933Z,15.50
2023-05-10T18:13:28.852Z,15.50
2023-05-10T18:15:56.871Z,15.60
2023-05-10T18:18:25.303Z,15.60
2023-05-10T18:20:57.566Z,15.60
2023-05-10T18:23:26.357Z,15.50
2023-05-10T18:25:54.352Z,15.40
2023-05-10T18:28:22.165Z,15.50
2023-05-10T18:30:49.986Z,15.30
2023-05-10T18:33:18.966Z,15.30
2023-05-10T18:35:47.464Z,15.20
2023-05-10T18:38:16.627Z,15.20
2023-05-10T18:40:44.511Z,15.00
2023-05-10T18:43:12.367Z,14.90
2023-05-10T18:45:40.128Z,14.90
2023-05-10T18:48:08.363Z,15.00
2023-05-10T18:50:36.209Z,14.90
2023-05-10T18:53:04.413Z,14.80
2023-05-10T18:55:33.671Z,14.80
2023-05-10T18:58:01.461Z,14.70
2023-05-10T19:00:29.243Z,14.70
2023-05-10T19:02:57.222Z,14.60
2023-05-10T19:05:29.920Z,14.50
2023-05-10T19:07:57.969Z,14.40
2023-05-10T19:10:25.891Z,14.30
2023-05-10T19:12:55.171Z,14.30
2023-05-10T19:15:23.429Z,14.40
2023-05-10T19:17:52.089Z,14.30
2023-05-10T19:20:20.081Z,14.30
2023-05-10T19:23:02.038Z,14.20
2023-05-10T19:25:35.836Z,14.20
2023-05-10T19:28:05.056Z,14.00
2023-05-10T19:30:32.894Z,14.00
2023-05-10T19:33:05.448Z,14.00
2023-05-10T19:35:33.464Z,14.10
2023-05-10T19:38:01.290Z,14.00
2023-05-10T19:40:29.070Z,14.00
2023-05-10T19:42:57.552Z,14.00
2023-05-10T19:45:26.761Z,14.10
2023-05-10T19:47:54.703Z,14.00
2023-05-10T19:50:22.542Z,13.90
2023-05-10T19:52:50.583Z,13.90
2023-05-10T19:55:28.977Z,13.90
2023-05-10T19:57:56.951Z,13.90
2023-05-10T20:00:27.248Z,13.80
2023-05-10T20:02:55.736Z,13.90
2023-05-10T20:05:23.794Z,13.80
2023-05-10T20:07:51.720Z,13.70
2023-05-10T20:10:19.652Z,13.70
2023-05-10T20:12:51.218Z,13.70
2023-05-10T20:15:20.165Z,13.70
2023-05-10T20:17:50.977Z,13.70
2023-05-10T20:20:19.988Z,13.70
2023-05-10T20:22:48.348Z,13.70
2023-05-10T20:25:16.971Z,13.70
2023-05-10T20:27:45.154Z,13.70
2023-05-10T20:30:13.734Z,13.60
2023-05-10T20:32:41.655Z,13.60
2023-05-10T20:35:11.854Z,13.60
2023-05-10T20:37:40.084Z,13.60
2023-05-10T20:40:08.944Z,13.50
2023-05-10T20:42:36.902Z,13.60
2023-05-10T20:45:05.232Z,13.50
2023-05-10T20:47:33.169Z,13.60
2023-05-10T20:50:01.031Z,13.50
2023-05-10T20:52:30.256Z,13.60
2023-05-10T20:54:58.035Z,13.50
2023-05-10T20:57:25.823Z,13.50
2023-05-10T20:59:54.580Z,13.50
2023-05-10T21:02:22.390Z,13.40
2023-05-10T21:04:50.276Z,13.40
2023-05-10T21:07:18.133Z,13.50
2023-05-10T21:09:47.255Z,13.50
2023-05-10T21:12:15.076Z,13.50
2023-05-10T21:14:43.037Z,13.40
2023-05-10T21:17:10.947Z,13.40
2023-05-10T21:19:38.801Z,13.40
2023-05-10T21:22:06.669Z,13.30
2023-05-10T21:24:35.014Z,13.30
2023-05-10T21:27:04.656Z,13.30
2023-05-10T21:29:32.464Z,13.20
2023-05-10T21:32:00.339Z,13.20
2023-05-10T21:34:28.207Z,13.20
2023-05-10T21:36:56.180Z,13.20
2023-05-10T21:39:23.968Z,13.10
2023-05-10T21:41:51.812Z,13.10
2023-05-10T21:44:21.035Z,13.10
2023-05-10T21:46:48.884Z,13.10
2023-05-10T21:49:16.661Z,13.10
2023-05-10T21:51:44.460Z,13.10
2023-05-10T21:54:12.247Z,13.10
2023-05-10T21:56:40.009Z,13.00
2023-05-10T21:59:07.787Z,13.00
2023-05-10T22:01:36.973Z,12.90
2023-05-10T22:04:04.822Z,12.90
2023-05-10T22:06:32.975Z,12.80
2023-05-10T22:09:00.830Z,12.80
2023-05-10T22:11:28.676Z,12.80
2023-05-10T22:13:56.480Z,12.70
2023-05-10T22:16:24.296Z,12.60
2023-05-10T22:18:54.450Z,12.60
2023-05-10T22:23:50.944Z,12.60
2023-05-10T22:26:18.748Z,12.50
2023-05-10T22:28:46.555Z,12.40
2023-05-10T22:31:14.460Z,12.40
2023-05-10T22:33:42.230Z,12.40
2023-05-10T22:36:11.656Z,12.40
2023-05-10T22:38:39.491Z,12.40
2023-05-10T22:41:08.030Z,12.40
2023-05-10T22:43:35.859Z,12.30
2023-05-10T22:46:03.748Z,12.50
2023-05-10T22:48:32.366Z,12.40
2023-05-10T22:51:00.748Z,12.40
2023-05-10T22:53:29.893Z,12.30
2023-05-10T22:55:57.741Z,12.40
2023-05-10T22:58:25.672Z,12.30
2023-05-10T23:00:54.152Z,12.30
2023-05-10T23:03:21.982Z,12.30
2023-05-10T23:05:49.778Z,12.30
2023-05-10T23:08:18.112Z,12.30
2023-05-10T23:10:47.585Z,12.30
2023-05-10T23:13:15.412Z,12.40
2023-05-10T23:15:43.558Z,12.40
2023-05-10T23:18:12.716Z,12.30
2023-05-10T23:20:42.581Z,12.30
2023-05-10T23:23:10.407Z,12.30
2023-05-10T23:25:38.606Z,12.50
2023-05-10T23:28:07.838Z,12.40
2023-05-10T23:30:35.800Z,12.30
2023-05-10T23:33:03.665Z,12.30
2023-05-10T23:35:31.484Z,12.30
2023-05-10T23:37:59.248Z,12.30
2023-05-10T23:40:27.223Z,12.30
2023-05-10T23:42:54.985Z,12.30
2023-05-10T23:45:24.061Z,12.20
2023-05-10T23:47:52.696Z,12.20
2023-05-10T23:50:20.521Z,12.20
2023-05-10T23:52:48.318Z,12.30
2023-05-10T23:55:16.283Z,12.20
2023-05-10T23:57:44.100Z,12.20
